Time;durP1;ratioP1;P1;durP2;ratioP2;P2;SDS_P1;SDS_P2;PMS_P1;PMS_P2;Temp;Humidity;BMP_temperature;BMP_pressure;BME280_temperature;BME280_humidity;BME280_pressure;Samples;Min_cycle;Max_cycle;Signal;HPM_P1;HPM_P2
2022/10/16 00:02:28;;;;;;;1.07;0.97;;;;;12.70;100492.00;;;;10497731;28;20208;-74
2022/10/16 00:07:29;;;;;;;1.07;0.87;;;;;12.60;100493.00;;;;10486965;28;20216;-75
2022/10/16 00:12:30;;;;;;;4.13;1.00;;;;;12.70;100494.00;;;;10482994;28;20266;-75
2022/10/16 00:17:32;;;;;;;2.07;1.00;;;;;12.60;100493.00;;;;10480480;28;20197;-75
2022/10/16 00:22:33;;;;;;;3.07;1.30;;;;;12.60;100506.00;;;;10507102;28;20199;-75
2022/10/16 00:27:35;;;;;;;0.80;0.80;;;;;12.50;100496.00;;;;10466771;28;20200;-75
2022/10/16 00:32:36;;;;;;;2.70;0.93;;;;;12.60;100502.00;;;;10486842;28;20221;-75
2022/10/16 00:37:37;;;;;;;1.83;1.00;;;;;12.60;100498.00;;;;10476595;28;20205;-75
2022/10/16 00:42:38;;;;;;;0.83;0.73;;;;;12.60;100494.00;;;;10502632;28;20243;-75
2022/10/16 00:47:44;;;;;;;1.20;1.10;;;;;12.60;100499.00;;;;10482061;28;20236;-75
2022/10/16 00:52:48;;;;;;;0.80;0.80;;;;;12.60;100505.00;;;;10476548;28;20272;-75
2022/10/16 00:57:49;;;;;;;3.33;1.10;;;;;12.60;100501.00;;;;10466184;28;20195;-75
2022/10/16 01:02:56;;;;;;;3.23;1.00;;;;;12.60;100515.00;;;;10474692;28;20600;-75
2022/10/16 01:08:13;;;;;;;1.33;0.93;;;;;12.50;100522.00;;;;10487669;28;20248;-74
2022/10/16 01:13:27;;;;;;;3.37;1.20;;;;;12.40;100508.00;;;;10488805;28;20196;-74
2022/10/16 01:18:34;;;;;;;2.83;0.77;;;;;12.40;100511.00;;;;10486233;28;20667;-75
2022/10/16 01:24:18;;;;;;;2.30;1.20;;;;;12.40;100509.00;;;;10501555;28;20198;-74
2022/10/16 01:29:39;;;;;;;4.87;1.20;;;;;12.50;100509.00;;;;10436511;28;20870;-74
2022/10/16 01:35:17;;;;;;;2.73;1.17;;;;;12.60;100511.00;;;;10478823;28;20193;-74
2022/10/16 01:40:21;;;;;;;2.00;1.10;;;;;12.50;100503.00;;;;10454407;28;20421;-74
2022/10/16 01:45:23;;;;;;;1.23;0.93;;;;;12.60;100501.00;;;;10493685;28;20203;-74
2022/10/16 01:50:26;;;;;;;1.33;1.17;;;;;12.70;100506.00;;;;10481056;28;20288;-74
2022/10/16 01:55:32;;;;;;;2.30;1.13;;;;;12.60;100504.00;;;;10479465;28;20201;-74
2022/10/16 02:00:34;;;;;;;3.47;1.00;;;;;12.60;100508.00;;;;10471407;28;20197;-75
2022/10/16 02:05:44;;;;;;;2.47;1.17;;;;;12.50;100512.00;;;;10460941;28;20218;-75
2022/10/16 02:10:46;;;;;;;2.50;1.23;;;;;12.50;100510.00;;;;10484949;28;20248;-74
2022/10/16 02:15:47;;;;;;;1.80;1.23;;;;;12.40;100522.00;;;;10480663;28;20212;-74
2022/10/16 02:20:59;;;;;;;1.43;1.10;;;;;12.40;100525.00;;;;10506890;28;20219;-74
2022/10/16 02:26:04;;;;;;;1.43;1.07;;;;;12.40;100521.00;;;;10488832;28;20252;-74
2022/10/16 02:31:11;;;;;;;1.80;1.13;;;;;12.30;100518.00;;;;10438601;28;20248;-74
2022/10/16 02:36:12;;;;;;;2.73;1.30;;;;;12.30;100533.00;;;;10478497;28;20263;-74
2022/10/16 02:41:14;;;;;;;2.47;1.30;;;;;12.40;100527.00;;;;10454868;28;20305;-74
2022/10/16 02:46:16;;;;;;;3.70;1.10;;;;;12.40;100520.00;;;;10484953;28;21010;-74
2022/10/16 02:51:18;;;;;;;4.70;1.03;;;;;12.40;100531.00;;;;10453287;28;20218;-74
2022/10/16 02:56:19;;;;;;;2.83;1.23;;;;;12.40;100531.00;;;;10442694;28;20246;-77
2022/10/16 03:01:20;;;;;;;1.77;1.40;;;;;12.40;100542.00;;;;10489527;28;20209;-74
2022/10/16 03:06:21;;;;;;;3.37;1.30;;;;;12.50;100545.00;;;;10464770;28;20217;-74
2022/10/16 03:11:23;;;;;;;2.90;1.73;;;;;12.50;100534.00;;;;10462665;28;20680;-74
2022/10/16 03:16:24;;;;;;;2.50;1.40;;;;;12.50;100562.00;;;;10495484;28;20220;-74
2022/10/16 03:21:25;;;;;;;1.60;1.17;;;;;12.50;100552.00;;;;10454498;28;20232;-74
2022/10/16 03:26:26;;;;;;;2.27;1.60;;;;;12.40;100555.00;;;;10474627;28;20182;-75
2022/10/16 03:31:28;;;;;;;2.20;1.40;;;;;12.40;100560.00;;;;10471515;28;20757;-74
2022/10/16 03:36:29;;;;;;;5.00;1.80;;;;;12.40;100567.00;;;;10486866;28;20197;-74
2022/10/16 03:41:30;;;;;;;2.47;1.70;;;;;12.30;100565.00;;;;10499996;28;20209;-74
2022/10/16 03:46:32;;;;;;;2.67;1.70;;;;;12.30;100551.00;;;;10456415;28;20711;-74
2022/10/16 03:51:33;;;;;;;3.70;1.80;;;;;12.30;100553.00;;;;10472129;28;20258;-74
2022/10/16 03:56:34;;;;;;;2.70;1.57;;;;;12.30;100556.00;;;;10495389;28;20663;-75
2022/10/16 04:01:35;;;;;;;1.93;1.17;;;;;12.40;100564.00;;;;10465372;28;20812;-75
2022/10/16 04:06:37;;;;;;;3.23;1.83;;;;;12.40;100570.00;;;;10488649;28;20213;-74
2022/10/16 04:11:38;;;;;;;4.90;1.57;;;;;12.40;100575.00;;;;10467072;28;20236;-74
2022/10/16 04:16:39;;;;;;;3.70;1.70;;;;;12.40;100581.00;;;;10473139;28;20225;-74
2022/10/16 04:21:41;;;;;;;4.70;1.63;;;;;12.40;100598.00;;;;10463814;28;20717;-75
2022/10/16 04:26:42;;;;;;;2.73;1.60;;;;;12.40;100596.00;;;;10499069;28;20201;-75
2022/10/16 04:31:43;;;;;;;6.27;1.60;;;;;12.40;100590.00;;;;10502388;28;20216;-74
2022/10/16 04:36:47;;;;;;;3.00;1.60;;;;;12.40;100602.00;;;;10484755;28;20209;-74
2022/10/16 04:41:48;;;;;;;6.20;1.47;;;;;12.40;100609.00;;;;10475551;28;20769;-74
2022/10/16 04:46:52;;;;;;;2.23;1.50;;;;;12.40;100625.00;;;;10463473;28;20198;-74
2022/10/16 04:51:54;;;;;;;1.63;1.53;;;;;12.30;100618.00;;;;10494457;28;20208;-74
2022/10/16 04:56:55;;;;;;;6.03;1.87;;;;;12.30;100625.00;;;;10494758;28;20194;-74
2022/10/16 05:01:56;;;;;;;4.30;1.73;;;;;12.20;100635.00;;;;10473043;28;20202;-74
2022/10/16 05:06:57;;;;;;;5.43;1.80;;;;;12.20;100647.00;;;;10485401;28;20869;-74
2022/10/16 05:11:58;;;;;;;2.80;1.50;;;;;12.20;100644.00;;;;10494405;28;20217;-74
2022/10/16 05:17:00;;;;;;;4.17;2.00;;;;;12.10;100654.00;;;;10471576;28;20197;-74
2022/10/16 05:22:01;;;;;;;5.43;1.60;;;;;12.10;100655.00;;;;10485710;28;20255;-74
2022/10/16 05:27:02;;;;;;;2.17;1.30;;;;;12.10;100662.00;;;;10468479;28;20577;-74
2022/10/16 05:32:03;;;;;;;3.13;1.83;;;;;12.10;100663.00;;;;10455762;28;20224;-74
2022/10/16 05:37:05;;;;;;;2.17;1.50;;;;;12.10;100668.00;;;;10503722;28;20212;-74
2022/10/16 05:42:07;;;;;;;2.43;1.70;;;;;12.20;100666.00;;;;10474323;28;20197;-74
2022/10/16 05:47:08;;;;;;;5.37;1.50;;;;;12.20;100678.00;;;;10489174;28;20203;-74
2022/10/16 05:52:09;;;;;;;2.30;1.80;;;;;12.20;100695.00;;;;10497402;28;20222;-74
2022/10/16 05:57:10;;;;;;;4.47;1.67;;;;;12.20;100692.00;;;;10487822;28;20198;-74
2022/10/16 06:02:13;;;;;;;1.93;1.57;;;;;12.10;100700.00;;;;10454911;28;20200;-74
2022/10/16 06:07:14;;;;;;;4.27;2.10;;;;;12.10;100706.00;;;;10435925;28;20226;-74
2022/10/16 06:12:15;;;;;;;2.50;1.83;;;;;12.10;100713.00;;;;10486344;28;20213;-74
2022/10/16 06:17:17;;;;;;;2.90;1.87;;;;;12.10;100727.00;;;;10458693;28;20765;-74
2022/10/16 06:22:18;;;;;;;2.50;2.03;;;;;12.20;100726.00;;;;10493562;28;20223;-74
2022/10/16 06:27:19;;;;;;;3.60;1.70;;;;;12.20;100734.00;;;;10463703;28;20660;-74
2022/10/16 06:32:21;;;;;;;8.80;2.30;;;;;12.30;100723.00;;;;10469123;28;20221;-76
2022/10/16 06:37:22;;;;;;;3.53;1.80;;;;;12.40;100729.00;;;;10453800;28;20725;-76
2022/10/16 06:42:23;;;;;;;4.57;1.90;;;;;12.50;100731.00;;;;10470288;28;20237;-74
2022/10/16 06:47:25;;;;;;;3.33;1.87;;;;;12.60;100752.00;;;;10447827;28;20527;-74
2022/10/16 06:52:28;;;;;;;3.70;2.37;;;;;12.80;100766.00;;;;10484762;28;20214;-74
2022/10/16 06:57:30;;;;;;;4.03;1.90;;;;;13.00;100762.00;;;;10464706;28;20199;-74
2022/10/16 07:02:31;;;;;;;4.63;1.90;;;;;13.20;100777.00;;;;10470166;28;20344;-74
2022/10/16 07:07:32;;;;;;;3.67;1.80;;;;;13.40;100780.00;;;;10484095;28;20296;-75
2022/10/16 07:12:33;;;;;;;4.23;1.83;;;;;13.40;100798.00;;;;10480819;28;20562;-75
2022/10/16 07:17:34;;;;;;;3.97;1.90;;;;;13.30;100808.00;;;;10482310;28;20197;-75
2022/10/16 07:22:35;;;;;;;3.30;1.80;;;;;13.30;100815.00;;;;10485970;28;20208;-75
2022/10/16 07:27:37;;;;;;;1.80;1.53;;;;;13.30;100827.00;;;;10478665;28;20193;-74
2022/10/16 07:32:39;;;;;;;4.63;1.83;;;;;13.60;100836.00;;;;10492848;28;20224;-75
2022/10/16 07:37:45;;;;;;;4.47;2.20;;;;;13.90;100846.00;;;;10464371;28;20216;-75
2022/10/16 07:42:46;;;;;;;1.83;1.60;;;;;14.20;100866.00;;;;10481563;28;20232;-75
2022/10/16 07:47:47;;;;;;;5.00;2.17;;;;;14.30;100882.00;;;;10478966;28;20201;-74
2022/10/16 07:52:48;;;;;;;3.25;1.85;;;;;14.60;100879.00;;;;10485679;28;20229;-74
2022/10/16 07:57:49;;;;;;;4.00;2.03;;;;;14.80;100886.00;;;;10489538;28;20189;-74
2022/10/16 08:02:50;;;;;;;3.72;2.10;;;;;15.10;100889.00;;;;10465812;28;20551;-74
2022/10/16 08:07:51;;;;;;;5.25;1.67;;;;;15.40;100889.00;;;;10481154;28;20326;-74
2022/10/16 08:12:53;;;;;;;5.03;2.17;;;;;15.90;100897.00;;;;10460975;28;20226;-74
2022/10/16 08:17:59;;;;;;;4.05;1.70;;;;;16.40;100895.00;;;;10466105;28;20224;-74
2022/10/16 08:23:01;;;;;;;2.97;1.40;;;;;16.90;100901.00;;;;10492246;28;20251;-74
2022/10/16 08:28:07;;;;;;;5.70;1.30;;;;;17.20;100894.00;;;;10484019;28;20245;-74
2022/10/16 08:33:08;;;;;;;4.10;1.70;;;;;17.50;100902.00;;;;10498356;28;20256;-74
2022/10/16 08:38:10;;;;;;;3.85;1.20;;;;;17.70;100910.00;;;;10491374;28;20205;-74
2022/10/16 08:43:24;;;;;;;3.85;1.08;;;;;18.00;100913.00;;;;10480170;28;20284;-74
2022/10/16 08:48:47;;;;;;;4.30;1.60;;;;;18.20;100922.00;;;;10467776;28;20201;-74
2022/10/16 08:53:57;;;;;;;7.65;1.95;;;;;18.50;100926.00;;;;10495863;28;20201;-74
2022/10/16 08:58:59;;;;;;;4.35;1.52;;;;;18.80;100934.00;;;;10483088;28;20323;-74
2022/10/16 09:04:25;;;;;;;5.53;1.83;;;;;18.90;100937.00;;;;10470695;28;20684;-74
2022/10/16 09:09:35;;;;;;;4.03;1.20;;;;;19.10;100941.00;;;;10483704;28;20549;-74
2022/10/16 09:14:58;;;;;;;4.80;1.48;;;;;19.30;100944.00;;;;10487589;28;20247;-75
2022/10/16 09:20:33;;;;;;;3.67;1.15;;;;;19.50;100956.00;;;;10484057;28;20200;-75
2022/10/16 09:25:35;;;;;;;4.45;1.35;;;;;19.60;100961.00;;;;10455851;28;20198;-75
2022/10/16 09:30:38;;;;;;;5.25;1.65;;;;;19.60;100962.00;;;;10489378;28;20323;-75
2022/10/16 09:35:43;;;;;;;5.78;1.40;;;;;19.70;100974.00;;;;10482801;28;20202;-76
2022/10/16 09:40:44;;;;;;;3.70;1.30;;;;;19.70;100981.00;;;;10470820;28;20197;-75
2022/10/16 09:46:00;;;;;;;3.15;1.10;;;;;19.90;100982.00;;;;10479011;28;21072;-75
2022/10/16 09:51:04;;;;;;;3.42;1.40;;;;;20.00;100992.00;;;;10495705;28;20217;-75
2022/10/16 09:56:06;;;;;;;3.55;1.20;;;;;20.10;100993.00;;;;10458839;28;20202;-75
2022/10/16 10:01:15;;;;;;;7.72;1.60;;;;;20.20;100994.00;;;;10449048;28;20209;-75
2022/10/16 10:06:25;;;;;;;2.35;0.90;;;;;20.30;100998.00;;;;10489647;28;20223;-75
2022/10/16 10:11:51;;;;;;;2.67;0.98;;;;;20.60;101010.00;;;;10468471;28;20875;-75
2022/10/16 10:17:15;;;;;;;3.67;1.10;;;;;21.10;101006.00;;;;10463302;28;20201;-75
2022/10/16 10:22:21;;;;;;;4.47;1.15;;;;;21.00;101011.00;;;;10481401;28;20250;-75
2022/10/16 10:27:52;;;;;;;3.65;0.80;;;;;21.00;101006.00;;;;10497613;28;20205;-75
2022/10/16 10:33:16;;;;;;;4.32;1.05;;;;;21.30;101002.00;;;;10469709;28;20352;-75
2022/10/16 10:38:42;;;;;;;2.20;1.02;;;;;21.90;101011.00;;;;10470449;28;20208;-75
2022/10/16 10:44:19;;;;;;;2.28;0.82;;;;;21.90;101012.00;;;;10466312;28;20767;-74
2022/10/16 10:49:36;;;;;;;4.47;1.10;;;;;21.10;101020.00;;;;10416712;28;20348;-75
2022/10/16 10:54:58;;;;;;;4.80;1.30;;;;;21.60;101013.00;;;;10448938;28;20855;-75
2022/10/16 11:00:24;;;;;;;3.25;1.05;;;;;22.30;101014.00;;;;10490950;28;20235;-75
2022/10/16 11:05:39;;;;;;;4.35;1.20;;;;;22.40;101003.00;;;;10481227;28;20221;-75
2022/10/16 11:10:47;;;;;;;3.05;1.00;;;;;23.00;101009.00;;;;10485283;28;20248;-75
2022/10/16 11:15:50;;;;;;;4.47;1.20;;;;;22.50;101022.00;;;;10488748;28;20201;-75
2022/10/16 11:21:00;;;;;;;5.35;0.80;;;;;23.50;101002.00;;;;10478851;28;20288;-75
2022/10/16 11:26:08;;;;;;;2.55;0.95;;;;;23.80;101006.00;;;;10507785;28;20202;-75
2022/10/16 11:31:47;;;;;;;1.88;0.95;;;;;23.70;100996.00;;;;10474926;28;20248;-75
2022/10/16 11:36:52;;;;;;;2.05;0.88;;;;;23.80;101007.00;;;;10477440;28;20198;-75
2022/10/16 11:42:09;;;;;;;2.65;1.08;;;;;23.80;101010.00;;;;10468232;28;20213;-75
2022/10/16 11:47:40;;;;;;;2.85;0.90;;;;;22.90;101004.00;;;;10472533;28;20197;-75
2022/10/16 11:53:21;;;;;;;5.70;1.27;;;;;22.70;101002.00;;;;10403036;28;20260;-75
2022/10/16 11:58:38;;;;;;;2.60;1.00;;;;;21.10;101000.00;;;;10464192;28;20186;-75
2022/10/16 12:03:53;;;;;;;2.33;1.00;;;;;20.50;100996.00;;;;10486309;28;20212;-75
2022/10/16 12:08:56;;;;;;;3.78;0.85;;;;;20.70;100990.00;;;;10484474;28;20245;-75
2022/10/16 12:14:12;;;;;;;1.98;0.90;;;;;21.40;100988.00;;;;10482101;28;20233;-75
2022/10/16 12:19:16;;;;;;;3.40;1.00;;;;;21.90;100996.00;;;;10475642;28;20571;-75
2022/10/16 12:24:41;;;;;;;2.95;0.88;;;;;22.30;101000.00;;;;10468103;28;20212;-75
2022/10/16 12:29:44;;;;;;;4.10;0.77;;;;;22.00;101004.00;;;;10476320;28;20209;-75
2022/10/16 12:34:47;;;;;;;3.88;0.80;;;;;22.10;101007.00;;;;10480414;28;20268;-75
2022/10/16 12:39:48;;;;;;;2.80;1.15;;;;;22.60;101010.00;;;;10473608;28;20661;-75
2022/10/16 12:44:50;;;;;;;2.85;0.80;;;;;22.50;101013.00;;;;10452874;28;20229;-75
2022/10/16 12:49:53;;;;;;;2.15;0.75;;;;;22.30;101027.00;;;;10466438;28;20226;-75
2022/10/16 12:55:00;;;;;;;3.85;0.82;;;;;21.50;101015.00;;;;10469302;28;20202;-75
2022/10/16 13:00:13;;;;;;;4.78;0.90;;;;;21.50;101029.00;;;;10490230;28;20197;-75
2022/10/16 13:05:33;;;;;;;1.50;0.50;;;;;21.30;101028.00;;;;10465648;28;20656;-75
2022/10/16 13:10:53;;;;;;;1.27;0.55;;;;;21.80;101017.00;;;;10462435;28;20239;-75
2022/10/16 13:16:07;;;;;;;1.88;0.70;;;;;22.00;101021.00;;;;10471356;28;20201;-75
2022/10/16 13:21:11;;;;;;;2.25;0.85;;;;;21.50;101026.00;;;;10496267;28;20201;-75
2022/10/16 13:26:34;;;;;;;3.55;0.82;;;;;21.30;101021.00;;;;10476005;28;20204;-75
2022/10/16 13:31:38;;;;;;;1.85;0.70;;;;;21.20;101016.00;;;;10467063;28;20269;-74
2022/10/16 13:36:46;;;;;;;6.00;1.08;;;;;21.30;101011.00;;;;10451559;28;20208;-75
2022/10/16 13:42:01;;;;;;;3.08;0.68;;;;;21.40;100998.00;;;;10468744;28;20197;-75
2022/10/16 13:47:20;;;;;;;2.60;0.82;;;;;21.40;101012.00;;;;10468529;28;20194;-75
2022/10/16 13:52:22;;;;;;;3.78;1.27;;;;;21.00;100997.00;;;;10460426;28;20225;-75
2022/10/16 13:57:24;;;;;;;4.68;0.80;;;;;20.90;100997.00;;;;10464932;28;20201;-75
2022/10/16 14:02:35;;;;;;;2.92;0.70;;;;;20.70;100994.00;;;;10457511;28;20201;-74
2022/10/16 14:07:37;;;;;;;1.77;0.88;;;;;20.70;100997.00;;;;10452556;28;20854;-75
2022/10/16 14:12:39;;;;;;;1.27;0.75;;;;;20.80;101002.00;;;;10480100;28;20223;-75
2022/10/16 14:17:43;;;;;;;2.53;0.90;;;;;20.50;101007.00;;;;10472738;28;20505;-74
2022/10/16 14:22:46;;;;;;;4.13;0.90;;;;;20.30;101007.00;;;;10474401;28;20194;-74
2022/10/16 14:27:59;;;;;;;5.07;1.38;;;;;20.50;101010.00;;;;10468579;28;20206;-74
2022/10/16 14:33:03;;;;;;;5.88;1.45;;;;;20.30;101001.00;;;;10457992;28;20323;-74
2022/10/16 14:38:06;;;;;;;3.22;1.13;;;;;20.00;100985.00;;;;10475910;28;20536;-75
2022/10/16 14:43:24;;;;;;;3.70;1.17;;;;;20.00;100992.00;;;;10459648;28;20207;-75
2022/10/16 14:48:25;;;;;;;4.90;1.08;;;;;20.00;101001.00;;;;10448448;28;20205;-75
2022/10/16 14:53:26;;;;;;;4.78;1.00;;;;;20.00;100997.00;;;;10477977;28;20283;-75
2022/10/16 14:58:27;;;;;;;4.78;1.88;;;;;20.00;100985.00;;;;10488279;28;20814;-75
2022/10/16 15:03:29;;;;;;;3.80;1.38;;;;;19.80;100993.00;;;;10464556;28;20228;-75
2022/10/16 15:08:30;;;;;;;3.13;1.10;;;;;19.70;100989.00;;;;10486549;28;20359;-75
2022/10/16 15:13:31;;;;;;;4.57;1.20;;;;;19.60;100992.00;;;;10466395;28;20275;-75
2022/10/16 15:18:32;;;;;;;5.25;1.63;;;;;19.60;100977.00;;;;10460382;28;20607;-75
2022/10/16 15:23:33;;;;;;;6.82;1.63;;;;;19.40;100980.00;;;;10457314;28;20202;-74
2022/10/16 15:28:35;;;;;;;4.63;1.30;;;;;19.20;100985.00;;;;10461599;28;20204;-75
2022/10/16 15:33:37;;;;;;;3.67;1.00;;;;;19.00;100990.00;;;;10450262;28;20210;-74
2022/10/16 15:38:40;;;;;;;4.20;1.27;;;;;18.80;100979.00;;;;10438201;28;20258;-75
2022/10/16 15:43:42;;;;;;;5.00;1.20;;;;;18.60;100962.00;;;;10487268;28;20202;-75
2022/10/16 15:48:43;;;;;;;4.18;1.30;;;;;18.40;100958.00;;;;10466322;28;20205;-75
2022/10/16 15:53:46;;;;;;;3.95;2.03;;;;;18.20;100956.00;;;;10483318;28;20307;-75
2022/10/16 15:58:47;;;;;;;5.90;1.25;;;;;18.00;100957.00;;;;10486633;28;20204;-75
2022/10/16 16:03:53;;;;;;;2.53;1.20;;;;;18.00;100950.00;;;;10495328;28;20236;-75
2022/10/16 16:08:54;;;;;;;2.08;1.27;;;;;17.80;100949.00;;;;10488714;28;20239;-75
2022/10/16 16:13:56;;;;;;;3.60;0.80;;;;;17.70;100953.00;;;;10456319;28;20193;-75
2022/10/16 16:18:57;;;;;;;4.80;1.20;;;;;17.50;100935.00;;;;10478920;28;20284;-75
2022/10/16 16:23:59;;;;;;;1.58;1.00;;;;;17.40;100937.00;;;;10479542;28;20215;-75
2022/10/16 16:29:00;;;;;;;5.53;1.30;;;;;17.30;100949.00;;;;10471511;28;20198;-75
2022/10/16 16:34:02;;;;;;;3.33;0.93;;;;;17.30;100954.00;;;;10452653;28;20223;-75
2022/10/16 16:39:04;;;;;;;5.05;1.80;;;;;17.20;100953.00;;;;10490553;28;20206;-75
2022/10/16 16:44:08;;;;;;;7.63;2.38;;;;;17.10;100949.00;;;;10490667;28;20193;-74
2022/10/16 16:49:11;;;;;;;1.83;1.08;;;;;17.00;100955.00;;;;10460283;28;20227;-74
2022/10/16 16:54:13;;;;;;;3.38;1.00;;;;;17.00;100948.00;;;;10475995;28;20255;-75
2022/10/16 16:59:20;;;;;;;1.48;1.00;;;;;16.90;100949.00;;;;10470436;28;20278;-75
2022/10/16 17:04:21;;;;;;;2.88;1.42;;;;;16.80;100963.00;;;;10488969;28;20221;-74
2022/10/16 17:09:23;;;;;;;5.25;1.00;;;;;16.70;101036.00;;;;10489818;28;20216;-76
2022/10/16 17:14:24;;;;;;;5.57;1.73;;;;;16.70;101046.00;;;;10480346;28;20202;-74
2022/10/16 17:19:25;;;;;;;4.72;1.65;;;;;16.40;101021.00;;;;10492728;28;20210;-74
2022/10/16 17:24:26;;;;;;;2.50;1.70;;;;;16.10;101035.00;;;;10486696;28;20193;-73
2022/10/16 17:29:28;;;;;;;3.75;2.35;;;;;15.80;101034.00;;;;10465177;28;20229;-73
2022/10/16 17:34:29;;;;;;;4.55;2.15;;;;;15.60;101042.00;;;;10482397;28;20209;-73
2022/10/16 17:39:30;;;;;;;7.72;1.98;;;;;15.50;101065.00;;;;10469661;28;20300;-73
2022/10/16 17:44:32;;;;;;;10.65;2.20;;;;;15.40;101049.00;;;;10484091;28;20193;-73
2022/10/16 17:49:33;;;;;;;4.05;2.25;;;;;15.40;101038.00;;;;10463094;28;20217;-72
2022/10/16 17:54:34;;;;;;;6.40;2.50;;;;;15.30;101039.00;;;;10470737;28;20194;-73
2022/10/16 17:59:36;;;;;;;7.68;2.47;;;;;15.20;101029.00;;;;10471380;28;20295;-73
2022/10/16 18:04:37;;;;;;;4.55;2.60;;;;;15.20;101038.00;;;;10483741;28;20237;-72
2022/10/16 18:09:38;;;;;;;4.80;3.00;;;;;15.20;101039.00;;;;10463181;28;20213;-73
2022/10/16 18:15:00;;;;;;;7.13;2.50;;;;;15.10;101040.00;;;;10493019;28;20623;-73
2022/10/16 18:20:05;;;;;;;3.97;2.47;;;;;15.10;101038.00;;;;10446358;28;20189;-73
2022/10/16 18:25:07;;;;;;;3.35;2.55;;;;;15.10;101044.00;;;;10464133;28;20201;-73
2022/10/16 18:30:08;;;;;;;6.28;3.50;;;;;15.00;101034.00;;;;10438221;28;20209;-73
2022/10/16 18:35:10;;;;;;;4.22;3.33;;;;;15.00;101040.00;;;;10494923;28;20196;-73
2022/10/16 18:40:11;;;;;;;7.53;4.10;;;;;14.90;101051.00;;;;10441515;28;20906;-73
2022/10/16 18:45:12;;;;;;;10.23;4.63;;;;;14.90;101061.00;;;;10464997;28;20649;-73
2022/10/16 18:50:13;;;;;;;7.22;5.28;;;;;14.90;101075.00;;;;10475586;28;20248;-73
2022/10/16 18:55:15;;;;;;;9.73;5.50;;;;;14.80;101075.00;;;;10459946;28;20197;-74
2022/10/16 19:00:16;;;;;;;8.63;5.00;;;;;14.80;101060.00;;;;10469892;28;20196;-74
2022/10/16 19:05:17;;;;;;;6.45;4.85;;;;;14.90;101054.00;;;;10464197;28;20217;-74
2022/10/16 19:10:18;;;;;;;8.48;4.47;;;;;14.80;101052.00;;;;10454857;28;20221;-74
2022/10/16 19:15:21;;;;;;;8.57;4.53;;;;;14.80;101057.00;;;;10497207;28;20197;-74
2022/10/16 19:20:22;;;;;;;8.32;5.05;;;;;14.60;101054.00;;;;10476228;28;20201;-74
2022/10/16 19:25:23;;;;;;;7.50;5.25;;;;;14.50;101057.00;;;;10491841;28;20272;-74
2022/10/16 19:30:24;;;;;;;10.50;6.43;;;;;14.50;101054.00;;;;10474566;28;20217;-74
2022/10/16 19:35:26;;;;;;;8.45;6.63;;;;;14.50;101060.00;;;;10484531;28;20203;-74
2022/10/16 19:40:27;;;;;;;10.68;6.22;;;;;14.60;101054.00;;;;10470038;28;20205;-74
2022/10/16 19:45:28;;;;;;;8.63;6.10;;;;;14.60;101052.00;;;;10465003;28;20197;-74
2022/10/16 19:50:29;;;;;;;9.27;6.50;;;;;14.60;101046.00;;;;10498929;28;20216;-74
2022/10/16 19:55:30;;;;;;;7.88;6.28;;;;;14.60;101043.00;;;;10472861;28;20668;-74
2022/10/16 20:00:32;;;;;;;8.27;6.43;;;;;14.50;101043.00;;;;10440049;28;20197;-74
2022/10/16 20:05:33;;;;;;;6.95;6.07;;;;;14.40;101040.00;;;;10458363;28;20669;-74
2022/10/16 20:10:34;;;;;;;8.95;6.80;;;;;14.50;101040.00;;;;10479245;28;20221;-74
2022/10/16 20:15:36;;;;;;;9.90;6.72;;;;;14.50;101029.00;;;;10466406;28;20227;-74
2022/10/16 20:20:39;;;;;;;9.80;7.47;;;;;14.60;101018.00;;;;10500017;28;20212;-74
2022/10/16 20:25:41;;;;;;;13.23;9.45;;;;;14.70;101021.00;;;;10507870;28;20200;-74
2022/10/16 20:30:45;;;;;;;12.25;8.10;;;;;14.70;101020.00;;;;10464805;28;20316;-74
2022/10/16 20:35:48;;;;;;;9.05;7.82;;;;;14.70;101030.00;;;;10453601;28;20612;-74
2022/10/16 20:40:49;;;;;;;13.93;9.60;;;;;14.70;101020.00;;;;10495882;28;20290;-74
2022/10/16 20:45:59;;;;;;;9.40;7.80;;;;;14.60;101022.00;;;;10477409;28;20208;-74
2022/10/16 20:51:10;;;;;;;9.57;6.68;;;;;14.60;101014.00;;;;10505151;28;20216;-74
2022/10/16 20:56:14;;;;;;;11.65;7.25;;;;;14.50;101014.00;;;;10492624;28;20687;-74
2022/10/16 21:01:21;;;;;;;10.93;7.63;;;;;14.40;101004.00;;;;10477037;28;20247;-74
2022/10/16 21:06:23;;;;;;;9.57;7.73;;;;;14.30;101009.00;;;;10459996;28;20313;-74
2022/10/16 21:11:26;;;;;;;10.70;8.02;;;;;14.30;101009.00;;;;10489996;28;20217;-75
2022/10/16 21:16:28;;;;;;;11.47;7.47;;;;;14.20;101009.00;;;;10476348;28;20204;-74
2022/10/16 21:21:31;;;;;;;10.03;8.37;;;;;14.10;101018.00;;;;10472678;28;20204;-74
2022/10/16 21:26:33;;;;;;;10.00;8.27;;;;;14.10;101007.00;;;;10484639;28;20587;-74
2022/10/16 21:31:34;;;;;;;9.40;7.55;;;;;14.00;101012.00;;;;10485422;28;20228;-74
2022/10/16 21:36:38;;;;;;;10.47;8.00;;;;;13.90;101011.00;;;;10484165;28;20564;-74
2022/10/16 21:41:41;;;;;;;8.68;7.78;;;;;14.00;101014.00;;;;10467158;28;20232;-74
2022/10/16 21:46:43;;;;;;;9.27;8.30;;;;;14.10;101010.00;;;;10483787;28;20194;-74
2022/10/16 21:51:49;;;;;;;11.20;8.17;;;;;14.10;101002.00;;;;10490156;28;20217;-74
2022/10/16 21:56:51;;;;;;;8.77;7.87;;;;;14.10;100997.00;;;;10474929;28;20201;-75
2022/10/16 22:01:53;;;;;;;14.90;8.83;;;;;14.00;100997.00;;;;10473954;28;20320;-74
2022/10/16 22:06:54;;;;;;;11.50;8.10;;;;;13.90;100987.00;;;;10462571;28;20267;-75
2022/10/16 22:11:56;;;;;;;10.17;7.40;;;;;13.80;100985.00;;;;10485096;28;20850;-74
2022/10/16 22:16:57;;;;;;;11.93;7.90;;;;;13.80;100988.00;;;;10481687;28;20793;-74
2022/10/16 22:22:00;;;;;;;10.33;8.13;;;;;13.80;100995.00;;;;10456855;28;20197;-74
2022/10/16 22:27:01;;;;;;;10.17;7.93;;;;;13.80;101000.00;;;;10488570;28;20212;-75
2022/10/16 22:32:02;;;;;;;9.27;7.23;;;;;13.80;100993.00;;;;10459023;28;20914;-74
2022/10/16 22:37:03;;;;;;;9.87;7.73;;;;;13.80;100990.00;;;;10467895;28;20201;-74
2022/10/16 22:42:04;;;;;;;10.73;7.73;;;;;13.70;100979.00;;;;10469430;28;20202;-74
2022/10/16 22:47:06;;;;;;;11.90;8.70;;;;;13.80;100977.00;;;;10474404;28;20212;-75
2022/10/16 22:52:07;;;;;;;10.03;8.90;;;;;13.80;100985.00;;;;10455069;28;20579;-73
2022/10/16 22:57:08;;;;;;;12.20;9.07;;;;;13.80;100976.00;;;;10477584;28;20316;-73
2022/10/16 23:02:09;;;;;;;10.30;7.53;;;;;13.80;100969.00;;;;10494628;28;20250;-73
2022/10/16 23:07:10;;;;;;;13.03;8.23;;;;;13.90;100969.00;;;;10493244;28;20233;-73
2022/10/16 23:12:11;;;;;;;11.43;8.00;;;;;13.90;100979.00;;;;10439193;28;20221;-73
2022/10/16 23:17:13;;;;;;;9.77;7.70;;;;;13.90;100978.00;;;;10457141;28;20197;-73
2022/10/16 23:22:14;;;;;;;10.70;8.77;;;;;13.80;100975.00;;;;10474625;28;20202;-73
2022/10/16 23:27:15;;;;;;;10.60;8.15;;;;;13.80;100974.00;;;;10471356;28;21026;-73
2022/10/16 23:32:16;;;;;;;13.03;8.93;;;;;13.80;100961.00;;;;10480855;28;20659;-73
2022/10/16 23:37:17;;;;;;;15.33;8.77;;;;;13.80;100957.00;;;;10468332;28;20267;-73
2022/10/16 23:42:23;;;;;;;13.67;9.17;;;;;13.80;100950.00;;;;10475012;28;20210;-73
2022/10/16 23:47:25;;;;;;;11.13;9.00;;;;;13.80;100946.00;;;;10486492;28;20189;-73
2022/10/16 23:52:26;;;;;;;11.77;8.80;;;;;13.70;100948.00;;;;10462386;28;20222;-73
2022/10/16 23:57:28;;;;;;;10.47;7.90;;;;;13.70;100950.00;;;;10444023;28;20275;-73
